Terminal Aerodrome Forecast
Issued by NWS

Home | Current Version | Previous Version | Graphics & Text | Print | Product List | Glossary On
Versions: 1 2 3 4 5 6 7 8 9 10 11 12
000
FTUS43 KOAX 312332
TAFCDR
TAF
KCDR 312332Z 0100/0124 15009KT P6SM FEW150
     FM010600 VRB05KT P6SM VCTS BKN070CB
     FM011200 23007KT P6SM SKC
     FM011900 01008KT P6SM FEW100=

USA.gov is the U.S. government's official web portal to all federal, state and local government web resources and services.